createdAt,value
2022-08-17T00:00:01.357Z,99966.34
2022-08-17T00:10:04.048Z,99966.81
2022-08-17T00:20:07.778Z,99967.34
2022-08-17T00:30:12.498Z,99970.88
2022-08-17T00:40:15.526Z,99976.06
2022-08-17T00:50:19.371Z,99968.91
2022-08-17T01:00:30.273Z,99965.94
2022-08-17T01:10:57.358Z,99961.97
2022-08-17T01:21:11.111Z,99962.75
2022-08-17T01:31:15.142Z,99973.41
2022-08-17T01:41:19.128Z,99979.56
2022-08-17T01:51:22.104Z,99970.69
2022-08-17T02:01:28.366Z,99973.91
2022-08-17T02:11:34.249Z,99972.00
2022-08-17T02:21:38.301Z,99973.06
2022-08-17T02:31:40.744Z,99976.34
2022-08-17T02:41:45.197Z,99986.25
2022-08-17T02:51:52.271Z,99996.56
2022-08-17T03:01:54.694Z,99997.41
2022-08-17T03:12:05.743Z,100001.19
2022-08-17T03:22:35.631Z,100008.94
2022-08-17T03:32:39.213Z,100005.19
2022-08-17T03:42:42.331Z,100011.91
2022-08-17T03:53:03.203Z,100021.28
2022-08-17T04:03:09.002Z,100030.34
2022-08-17T04:13:11.514Z,100029.50
2022-08-17T04:23:16.410Z,100037.06
2022-08-17T04:33:24.348Z,100045.63
2022-08-17T04:43:28.255Z,100037.06
2022-08-17T04:53:30.635Z,100046.41
2022-08-17T05:03:32.981Z,100063.41
2022-08-17T05:13:35.402Z,100065.91
2022-08-17T05:23:42.777Z,100086.22
2022-08-17T05:33:46.455Z,100080.75
2022-08-17T05:43:51.842Z,100085.47
2022-08-17T05:54:35.743Z,100090.81
2022-08-17T06:04:50.587Z,100090.75
2022-08-17T06:15:19.829Z,100090.44
2022-08-17T06:25:45.591Z,100091.09
2022-08-17T06:36:25.355Z,100092.41
2022-08-17T06:46:36.439Z,100087.88
2022-08-17T06:56:56.052Z,100081.78
2022-08-17T07:07:29.688Z,100076.84
2022-08-17T07:17:47.523Z,100076.56
2022-08-17T07:27:54.734Z,100070.81
2022-08-17T07:38:24.920Z,100081.19
2022-08-17T07:48:33.830Z,100072.09
2022-08-17T07:58:36.437Z,100083.84
2022-08-17T08:08:43.685Z,100074.25
2022-08-17T08:18:55.542Z,100085.28
2022-08-17T08:29:50.978Z,100082.81
2022-08-17T08:40:11.594Z,100075.78
2022-08-17T08:50:37.141Z,100092.13
2022-08-17T09:00:46.309Z,100091.41
2022-08-17T09:11:02.615Z,100087.69
2022-08-17T09:21:11.187Z,100102.22
2022-08-17T09:31:24.100Z,100099.31
2022-08-17T09:41:49.142Z,100086.56
2022-08-17T09:52:00.792Z,100079.88
2022-08-17T10:02:40.702Z,100076.22
2022-08-17T10:12:56.065Z,100058.00
2022-08-17T10:23:33.275Z,100068.84
2022-08-17T10:33:51.196Z,100077.00
2022-08-17T10:44:37.483Z,100046.41
2022-08-17T10:54:25.158Z,100051.84
2022-08-17T11:04:48.154Z,100044.56
2022-08-17T11:14:58.185Z,100045.25
2022-08-17T11:25:34.107Z,100037.94
2022-08-17T11:35:48.617Z,100025.19
2022-08-17T11:46:25.137Z,100014.19
2022-08-17T11:56:33.274Z,100026.72
2022-08-17T12:06:48.627Z,100018.03
2022-08-17T12:17:26.508Z,100018.38
2022-08-17T12:28:04.294Z,100002.38
2022-08-17T12:38:31.917Z,100001.81
2022-08-17T12:48:36.313Z,99984.84
2022-08-17T12:58:49.222Z,99985.31
2022-08-17T13:08:52.431Z,99981.72
2022-08-17T13:19:14.859Z,99973.47
2022-08-17T13:29:33.302Z,99963.03
2022-08-17T13:39:41.898Z,99955.00
2022-08-17T13:49:48.842Z,99964.34
2022-08-17T14:00:18.100Z,99953.84
2022-08-17T14:10:21.113Z,99955.88
2022-08-17T14:20:24.812Z,99938.22
2022-08-17T14:30:29.842Z,99937.25
2022-08-17T14:40:35.419Z,99943.22
2022-08-17T14:50:39.570Z,99947.78
2022-08-17T15:00:43.993Z,99949.47
2022-08-17T15:10:54.191Z,99931.38
2022-08-17T15:20:57.227Z,99950.53
2022-08-17T15:31:00.491Z,99945.63
2022-08-17T15:41:03.381Z,99956.50
2022-08-17T15:51:06.186Z,99963.69
2022-08-17T16:01:16.661Z,99981.09
2022-08-17T16:11:22.765Z,99972.13
2022-08-17T16:21:31.174Z,99971.59
2022-08-17T16:31:45.067Z,99982.81
2022-08-17T16:41:48.558Z,99994.19
2022-08-17T16:51:51.388Z,100011.47
2022-08-17T17:01:54.142Z,100020.72
2022-08-17T17:12:00.670Z,100019.81
2022-08-17T17:22:10.006Z,100040.97
2022-08-17T17:32:39.198Z,100056.13
2022-08-17T17:42:43.672Z,100058.88
2022-08-17T17:53:19.603Z,100094.66
2022-08-17T18:04:02.094Z,100091.72
2022-08-17T18:14:44.844Z,100089.03
2022-08-17T18:24:56.259Z,100098.59
2022-08-17T18:35:19.080Z,100107.53
2022-08-17T18:45:42.878Z,100114.50
2022-08-17T18:55:45.443Z,100118.03
2022-08-17T19:05:57.316Z,100131.44
2022-08-17T19:16:21.015Z,100132.09
2022-08-17T19:26:53.928Z,100119.88
2022-08-17T19:37:01.086Z,100133.75
2022-08-17T19:47:22.535Z,100144.50
2022-08-17T19:57:34.882Z,100144.38
2022-08-17T20:07:48.922Z,100152.44
2022-08-17T20:17:53.975Z,100147.16
2022-08-17T20:28:05.867Z,100163.97
2022-08-17T20:38:12.379Z,100170.78
2022-08-17T20:48:36.917Z,100176.69
2022-08-17T20:58:46.727Z,100185.75
2022-08-17T21:08:59.083Z,100192.34
2022-08-17T21:20:00.481Z,100185.56
2022-08-17T21:30:10.177Z,100181.84
2022-08-17T21:40:18.925Z,100188.81
2022-08-17T21:50:25.267Z,100190.75
2022-08-17T22:00:32.727Z,100196.13
2022-08-17T22:10:38.287Z,100197.69
2022-08-17T22:20:41.219Z,100199.09
2022-08-17T22:31:00.672Z,100194.19
2022-08-17T22:41:15.293Z,100190.19
2022-08-17T22:51:30.115Z,100192.34
2022-08-17T23:01:35.093Z,100189.66
2022-08-17T23:11:49.527Z,100207.75
2022-08-17T23:21:55.484Z,100202.88
2022-08-17T23:32:00.196Z,100201.84
2022-08-17T23:42:09.270Z,100200.91
2022-08-17T23:52:15.241Z,100213.09
